createdAt,value
2023-12-26T00:00:37.661Z,29.59
2023-12-26T00:01:37.683Z,29.51
2023-12-26T00:02:37.799Z,29.50
2023-12-26T00:03:37.947Z,29.48
2023-12-26T00:04:37.899Z,29.52
2023-12-26T00:05:38.008Z,29.51
2023-12-26T00:06:38.202Z,29.48
2023-12-26T00:07:38.109Z,29.51
2023-12-26T00:08:38.151Z,29.47
2023-12-26T00:09:38.259Z,29.47
2023-12-26T00:10:38.301Z,29.48
2023-12-26T00:11:38.402Z,29.41
2023-12-26T00:12:38.430Z,29.48
2023-12-26T00:13:38.519Z,29.49
2023-12-26T00:14:38.593Z,29.43
2023-12-26T00:15:38.643Z,29.43
2023-12-26T00:16:38.649Z,29.44
2023-12-26T00:17:38.873Z,29.45
2023-12-26T00:18:38.827Z,29.43
2023-12-26T00:19:38.897Z,29.40
2023-12-26T00:20:38.798Z,29.43
2023-12-26T00:21:38.848Z,29.43
2023-12-26T00:22:38.876Z,29.46
2023-12-26T00:23:38.928Z,29.45
2023-12-26T00:24:38.912Z,29.37
2023-12-26T00:25:38.968Z,29.43
2023-12-26T00:26:40.703Z,29.36
2023-12-26T00:27:39.033Z,29.40
2023-12-26T00:28:39.068Z,29.37
2023-12-26T00:29:39.134Z,29.43
2023-12-26T00:30:39.248Z,29.37
2023-12-26T00:31:39.221Z,29.37
2023-12-26T00:32:39.404Z,29.34
2023-12-26T00:33:39.489Z,29.37
2023-12-26T00:34:39.532Z,29.34
2023-12-26T00:35:39.564Z,29.37
2023-12-26T00:36:39.587Z,29.30
2023-12-26T00:37:39.637Z,29.34
2023-12-26T00:38:39.727Z,29.34
2023-12-26T00:39:39.729Z,29.33
2023-12-26T00:40:39.795Z,29.31
2023-12-26T00:41:39.885Z,29.31
2023-12-26T00:42:39.901Z,29.33
2023-12-26T00:43:39.967Z,29.30
2023-12-26T00:44:39.989Z,29.26
2023-12-26T00:45:40.012Z,29.23
2023-12-26T00:46:40.080Z,29.34
2023-12-26T00:47:40.357Z,29.27
2023-12-26T00:48:40.243Z,29.22
2023-12-26T00:49:40.273Z,29.24
2023-12-26T00:50:40.314Z,29.28
2023-12-26T00:51:40.321Z,29.17
2023-12-26T00:52:40.395Z,29.23
2023-12-26T00:53:40.446Z,29.17
2023-12-26T00:54:40.459Z,29.20
2023-12-26T00:55:40.544Z,29.20
2023-12-26T00:56:40.603Z,29.19
2023-12-26T00:57:40.645Z,29.20
2023-12-26T00:58:40.723Z,29.25
2023-12-26T00:59:40.784Z,29.21
2023-12-26T01:00:40.871Z,29.17
2023-12-26T01:01:40.855Z,29.17
2023-12-26T01:02:40.959Z,29.19
2023-12-26T01:03:41.039Z,29.17
2023-12-26T01:04:41.104Z,29.16
2023-12-26T01:05:41.119Z,29.21
2023-12-26T01:06:41.092Z,29.15
2023-12-26T01:07:41.146Z,29.09
2023-12-26T01:08:41.239Z,29.16
2023-12-26T01:09:41.337Z,29.12
2023-12-26T01:10:41.375Z,29.14
2023-12-26T01:11:41.535Z,29.09
2023-12-26T01:12:41.462Z,29.17
2023-12-26T01:13:41.490Z,29.12
2023-12-26T01:14:41.558Z,29.10
2023-12-26T01:15:41.570Z,29.07
2023-12-26T01:16:41.670Z,29.06
2023-12-26T01:17:41.733Z,29.07
2023-12-26T01:18:41.809Z,29.05
2023-12-26T01:19:41.758Z,29.01
2023-12-26T01:20:41.788Z,29.03
2023-12-26T01:21:41.816Z,29.03
2023-12-26T01:22:41.837Z,29.05
2023-12-26T01:23:41.924Z,29.06
2023-12-26T01:24:41.922Z,29.13
2023-12-26T01:25:41.949Z,29.01
2023-12-26T01:26:42.032Z,29.05
2023-12-26T01:27:42.059Z,28.99
2023-12-26T01:28:42.068Z,28.96
2023-12-26T01:29:42.130Z,28.96
2023-12-26T01:30:42.195Z,28.96
2023-12-26T01:31:42.166Z,28.99
2023-12-26T01:32:42.245Z,28.95
2023-12-26T01:33:42.332Z,28.95
2023-12-26T01:34:42.343Z,28.97
2023-12-26T01:35:42.352Z,28.98
2023-12-26T01:36:42.365Z,28.92
2023-12-26T01:37:42.408Z,29.00
2023-12-26T01:38:42.427Z,28.99
2023-12-26T01:39:42.459Z,28.90
2023-12-26T01:40:42.616Z,28.92
2023-12-26T01:41:42.541Z,28.88
2023-12-26T01:42:42.575Z,28.90
2023-12-26T01:43:42.590Z,28.96
2023-12-26T01:44:42.726Z,28.93
2023-12-26T01:45:42.666Z,28.89
2023-12-26T01:46:42.714Z,28.90
2023-12-26T01:47:42.791Z,28.89
2023-12-26T01:48:42.851Z,28.96
2023-12-26T01:49:42.889Z,28.92
2023-12-26T01:50:42.962Z,28.92
2023-12-26T01:51:43.006Z,28.84
2023-12-26T01:52:42.916Z,28.86
2023-12-26T01:53:42.957Z,28.88
2023-12-26T01:54:43.027Z,28.84
2023-12-26T01:55:43.024Z,28.86
2023-12-26T01:56:43.028Z,28.88
2023-12-26T01:57:43.014Z,28.86
2023-12-26T01:58:43.057Z,28.82
2023-12-26T01:59:43.097Z,28.88
2023-12-26T02:00:43.109Z,28.82
2023-12-26T02:01:43.043Z,28.81
2023-12-26T02:02:43.104Z,28.81
2023-12-26T02:03:43.070Z,28.82
2023-12-26T02:04:43.150Z,28.82
2023-12-26T02:05:43.188Z,28.86
2023-12-26T02:06:43.205Z,28.84
2023-12-26T02:07:43.261Z,28.83
2023-12-26T02:08:43.332Z,28.84
2023-12-26T02:09:43.339Z,28.78
2023-12-26T02:10:43.374Z,28.83
2023-12-26T02:11:43.441Z,28.75
2023-12-26T02:12:43.449Z,28.78
2023-12-26T02:13:43.484Z,28.81
2023-12-26T02:14:43.544Z,28.81
2023-12-26T02:15:43.570Z,28.74
2023-12-26T02:16:43.621Z,28.75
2023-12-26T02:17:43.834Z,28.72
2023-12-26T02:18:43.737Z,28.81
2023-12-26T02:19:43.791Z,28.74
2023-12-26T02:20:43.732Z,28.72
2023-12-26T02:21:43.721Z,28.74
2023-12-26T02:22:43.701Z,28.72
2023-12-26T02:23:43.766Z,28.74
2023-12-26T02:24:43.798Z,28.75
2023-12-26T02:25:43.809Z,28.71
2023-12-26T02:26:43.857Z,28.74
2023-12-26T02:27:43.838Z,28.69
2023-12-26T02:28:43.841Z,28.71
2023-12-26T02:29:43.887Z,28.69
2023-12-26T02:30:43.947Z,28.68
2023-12-26T02:31:43.928Z,28.75
2023-12-26T02:32:44.012Z,28.69
2023-12-26T02:33:44.062Z,28.69
2023-12-26T02:34:44.080Z,28.72
2023-12-26T02:35:44.066Z,28.69
2023-12-26T02:36:44.059Z,28.69
2023-12-26T02:37:44.104Z,28.71
2023-12-26T02:38:44.126Z,28.74
2023-12-26T02:39:44.146Z,28.67
2023-12-26T02:40:44.183Z,28.69
2023-12-26T02:41:44.243Z,28.64
2023-12-26T02:42:44.214Z,28.68
2023-12-26T02:43:44.366Z,28.66
2023-12-26T02:44:44.287Z,28.65
2023-12-26T02:45:44.292Z,28.65
2023-12-26T02:46:44.307Z,28.63
2023-12-26T02:47:44.442Z,28.68
2023-12-26T02:48:44.474Z,28.66
2023-12-26T02:49:44.424Z,28.68
2023-12-26T02:50:44.451Z,28.65
2023-12-26T02:51:44.413Z,28.68
2023-12-26T02:52:44.421Z,28.64
2023-12-26T02:53:44.465Z,28.69
2023-12-26T02:54:44.461Z,28.66
2023-12-26T02:55:44.481Z,28.69
2023-12-26T02:56:44.515Z,28.65
2023-12-26T02:57:44.507Z,28.67
2023-12-26T02:58:44.530Z,28.67
2023-12-26T02:59:44.565Z,28.63
2023-12-26T03:00:44.617Z,28.68
2023-12-26T03:01:44.586Z,28.65
2023-12-26T03:02:44.681Z,28.68
2023-12-26T03:03:44.710Z,28.69
2023-12-26T03:04:44.673Z,28.65
2023-12-26T03:05:44.761Z,28.71
2023-12-26T03:06:44.718Z,28.65
2023-12-26T03:07:44.730Z,28.68
2023-12-26T03:08:44.737Z,28.68
2023-12-26T03:09:44.740Z,28.64
2023-12-26T03:10:44.743Z,28.62
2023-12-26T03:11:44.783Z,28.68
2023-12-26T03:12:44.795Z,28.61
2023-12-26T03:13:44.800Z,28.65
2023-12-26T03:14:44.901Z,28.64
2023-12-26T03:15:44.821Z,28.60
2023-12-26T03:16:44.807Z,28.65
2023-12-26T03:17:44.919Z,28.61
2023-12-26T03:18:44.993Z,28.57
2023-12-26T03:19:44.951Z,28.65
2023-12-26T03:20:44.922Z,28.62
2023-12-26T03:21:44.894Z,28.63
2023-12-26T03:22:44.890Z,28.58
2023-12-26T03:23:44.949Z,28.67
2023-12-26T03:24:44.907Z,28.65
2023-12-26T03:25:44.910Z,28.60
2023-12-26T03:26:44.963Z,28.60
2023-12-26T03:27:44.943Z,28.61
2023-12-26T03:28:44.985Z,28.59
2023-12-26T03:29:45.058Z,28.61
2023-12-26T03:30:45.061Z,28.63
2023-12-26T03:31:45.050Z,28.61
2023-12-26T03:32:45.164Z,28.61
2023-12-26T03:33:45.338Z,28.62
2023-12-26T03:34:45.110Z,28.57
2023-12-26T03:35:45.147Z,28.60
2023-12-26T03:36:45.148Z,28.57
2023-12-26T03:37:45.151Z,28.58
2023-12-26T03:38:45.181Z,28.55
2023-12-26T03:39:45.129Z,28.55
2023-12-26T03:40:45.150Z,28.60
2023-12-26T03:41:45.235Z,28.55
2023-12-26T03:42:45.173Z,28.57
2023-12-26T03:43:45.180Z,28.62
2023-12-26T03:44:45.265Z,28.52
2023-12-26T03:45:45.373Z,28.54
2023-12-26T03:46:45.199Z,28.54
2023-12-26T03:47:45.346Z,28.54
2023-12-26T03:48:45.420Z,28.55
2023-12-26T03:49:45.261Z,28.52
2023-12-26T03:50:45.242Z,28.50
2023-12-26T03:51:45.252Z,28.47
2023-12-26T03:52:45.245Z,28.52
2023-12-26T03:53:45.301Z,28.50
2023-12-26T03:54:45.302Z,28.51
2023-12-26T03:55:45.371Z,28.58
2023-12-26T03:56:45.413Z,28.52
2023-12-26T03:57:45.451Z,28.51
2023-12-26T03:58:45.486Z,28.51
2023-12-26T03:59:45.513Z,28.48
2023-12-26T04:00:45.626Z,28.51
2023-12-26T04:01:45.609Z,28.50
2023-12-26T04:02:45.791Z,28.54
2023-12-26T04:03:45.816Z,28.48
2023-12-26T04:04:45.862Z,28.54
2023-12-26T04:05:45.990Z,28.51
2023-12-26T04:06:45.812Z,28.46
2023-12-26T04:07:45.910Z,28.48
2023-12-26T04:08:45.938Z,28.45
2023-12-26T04:09:45.981Z,28.48
2023-12-26T04:10:46.003Z,28.47
2023-12-26T04:11:46.120Z,28.47
2023-12-26T04:12:46.098Z,28.46
2023-12-26T04:13:46.151Z,28.48
2023-12-26T04:14:46.846Z,28.52
2023-12-26T04:15:46.182Z,28.50
2023-12-26T04:16:46.196Z,28.47
2023-12-26T04:17:46.388Z,28.47
2023-12-26T04:18:46.517Z,28.48
2023-12-26T04:19:46.227Z,28.44
2023-12-26T04:20:46.240Z,28.44
2023-12-26T04:21:46.227Z,28.44
2023-12-26T04:22:46.242Z,28.45
2023-12-26T04:23:46.270Z,28.42
2023-12-26T04:24:46.237Z,28.47
2023-12-26T04:25:46.243Z,28.42
2023-12-26T04:26:46.324Z,28.42
2023-12-26T04:27:46.368Z,28.37
2023-12-26T04:28:46.376Z,28.50
2023-12-26T04:29:53.630Z,28.48
2023-12-26T04:30:53.639Z,28.48
2023-12-26T04:32:00.925Z,28.51
2023-12-26T04:33:01.201Z,28.45
2023-12-26T04:34:01.018Z,28.44
2023-12-26T04:35:00.851Z,28.47
2023-12-26T04:36:00.867Z,28.41
2023-12-26T04:37:00.844Z,28.45
2023-12-26T04:38:00.848Z,28.47
2023-12-26T04:39:00.873Z,28.40
2023-12-26T04:40:00.849Z,28.38
2023-12-26T04:41:00.830Z,28.41
2023-12-26T04:42:00.873Z,28.41
2023-12-26T04:43:00.838Z,28.42
2023-12-26T04:44:00.836Z,28.37
2023-12-26T04:45:00.906Z,28.36
2023-12-26T04:46:00.842Z,28.33
2023-12-26T04:47:00.874Z,28.40
2023-12-26T04:48:01.077Z,28.36
2023-12-26T04:49:00.994Z,28.30
2023-12-26T04:50:00.930Z,28.37
2023-12-26T04:51:00.885Z,28.42
2023-12-26T04:52:00.871Z,28.36
2023-12-26T04:53:00.869Z,28.33
2023-12-26T04:54:00.935Z,28.33
2023-12-26T04:55:00.856Z,28.34
2023-12-26T04:56:00.869Z,28.34
2023-12-26T04:57:00.966Z,28.33
2023-12-26T04:58:00.876Z,28.30
2023-12-26T04:59:00.846Z,28.34
2023-12-26T05:00:00.930Z,28.31
2023-12-26T05:01:00.923Z,28.33
2023-12-26T05:02:00.864Z,28.33
2023-12-26T05:03:01.290Z,28.30
2023-12-26T05:04:00.863Z,28.29
2023-12-26T05:05:00.879Z,28.33
2023-12-26T05:06:00.959Z,28.33
2023-12-26T05:07:00.910Z,28.31
2023-12-26T05:08:00.908Z,28.33
2023-12-26T05:09:00.902Z,28.27
2023-12-26T05:10:00.885Z,28.31
2023-12-26T05:11:00.907Z,28.36
2023-12-26T05:12:00.944Z,28.29
2023-12-26T05:13:00.876Z,28.30
2023-12-26T05:14:00.914Z,28.34
2023-12-26T05:15:00.928Z,28.26
2023-12-26T05:16:00.924Z,28.31
2023-12-26T05:17:00.895Z,28.29
2023-12-26T05:18:01.047Z,28.31
2023-12-26T05:19:00.982Z,28.30
2023-12-26T05:20:10.576Z,28.29
2023-12-26T05:21:01.924Z,28.31
2023-12-26T05:22:00.905Z,28.27
2023-12-26T05:23:00.913Z,28.27
2023-12-26T05:24:00.952Z,28.22
2023-12-26T05:25:00.902Z,28.27
2023-12-26T05:26:05.050Z,28.24
2023-12-26T05:27:01.991Z,28.33
2023-12-26T05:28:00.927Z,28.26
2023-12-26T05:29:00.917Z,28.22
2023-12-26T05:30:00.947Z,28.23
2023-12-26T05:31:00.953Z,28.24
2023-12-26T05:32:00.939Z,28.25
2023-12-26T05:33:01.402Z,28.27
2023-12-26T05:34:01.100Z,28.24
2023-12-26T05:35:00.952Z,28.24
2023-12-26T05:36:00.983Z,28.31
2023-12-26T05:37:00.960Z,28.24
2023-12-26T05:38:00.946Z,28.24
2023-12-26T05:39:00.956Z,28.24
2023-12-26T05:40:00.976Z,28.27
2023-12-26T05:41:00.942Z,28.22
2023-12-26T05:42:00.969Z,28.22
2023-12-26T05:43:01.140Z,28.23
2023-12-26T05:44:00.942Z,28.19
2023-12-26T05:45:00.995Z,28.23
2023-12-26T05:46:00.988Z,28.22
2023-12-26T05:47:00.961Z,28.22
2023-12-26T05:48:01.189Z,28.19
2023-12-26T05:49:01.225Z,28.23
2023-12-26T05:50:01.556Z,28.20
2023-12-26T05:51:00.996Z,28.20
2023-12-26T05:52:00.956Z,28.23
2023-12-26T05:53:00.968Z,28.20
2023-12-26T05:54:00.984Z,28.16
2023-12-26T05:55:00.945Z,28.22
2023-12-26T05:56:00.959Z,28.22
2023-12-26T05:57:01.037Z,28.22
2023-12-26T05:58:01.037Z,28.17
2023-12-26T05:59:01.119Z,28.12
2023-12-26T06:00:01.176Z,28.14
2023-12-26T06:01:24.008Z,28.19
2023-12-26T06:02:01.168Z,28.14
2023-12-26T06:03:01.316Z,28.13
2023-12-26T06:04:01.200Z,28.14
2023-12-26T06:05:01.178Z,28.16
2023-12-26T06:06:01.299Z,28.16
2023-12-26T06:07:01.203Z,28.13
2023-12-26T06:08:01.170Z,28.17
2023-12-26T06:09:01.181Z,28.10
2023-12-26T06:10:01.177Z,28.12
2023-12-26T06:11:01.181Z,28.14
2023-12-26T06:12:01.227Z,28.13
2023-12-26T06:13:01.243Z,28.16
2023-12-26T06:14:01.495Z,28.09
2023-12-26T06:15:01.398Z,28.14
2023-12-26T06:16:01.506Z,28.12
2023-12-26T06:17:01.481Z,28.16
2023-12-26T06:18:01.777Z,28.14
2023-12-26T06:19:01.829Z,28.13
2023-12-26T06:20:01.799Z,28.12
2023-12-26T06:21:01.713Z,28.13
2023-12-26T06:22:01.692Z,28.14
2023-12-26T06:23:01.738Z,28.13
2023-12-26T06:24:01.835Z,28.09
2023-12-26T06:25:01.847Z,28.13
2023-12-26T06:26:01.925Z,28.12
2023-12-26T06:27:01.954Z,28.10
2023-12-26T06:28:01.982Z,28.12
2023-12-26T06:29:01.994Z,28.14
2023-12-26T06:30:02.187Z,28.12
2023-12-26T06:31:02.521Z,28.06
2023-12-26T06:32:02.139Z,28.07
2023-12-26T06:33:02.561Z,28.09
2023-12-26T06:34:02.275Z,28.05
2023-12-26T06:35:05.139Z,28.07
2023-12-26T06:36:02.543Z,28.10
2023-12-26T06:37:02.193Z,28.07
2023-12-26T06:38:02.140Z,28.10
2023-12-26T06:39:02.258Z,28.06
2023-12-26T06:40:02.162Z,28.09
2023-12-26T06:41:02.160Z,28.06
2023-12-26T06:42:02.186Z,28.03
2023-12-26T06:43:02.181Z,28.06
2023-12-26T06:44:02.189Z,28.05
2023-12-26T06:45:02.257Z,28.07
2023-12-26T06:47:25.032Z,28.06
2023-12-26T06:48:02.282Z,28.02
2023-12-26T06:49:02.219Z,28.02
2023-12-26T06:50:02.182Z,28.07
2023-12-26T06:51:02.196Z,28.07
2023-12-26T06:52:02.160Z,28.04
2023-12-26T06:53:02.164Z,28.06
2023-12-26T06:54:02.184Z,28.06
2023-12-26T06:55:02.180Z,28.10
2023-12-26T06:56:02.223Z,28.02
2023-12-26T06:57:02.199Z,28.12
2023-12-26T06:58:02.202Z,28.07
2023-12-26T06:59:02.222Z,28.02
2023-12-26T07:00:02.477Z,28.06
2023-12-26T07:01:02.265Z,28.06
2023-12-26T07:02:02.183Z,28.00
2023-12-26T07:03:02.751Z,28.04
2023-12-26T07:04:02.396Z,28.02
2023-12-26T07:05:02.212Z,28.04
2023-12-26T07:06:02.231Z,28.02
2023-12-26T07:07:02.195Z,28.04
2023-12-26T07:08:02.209Z,28.03
2023-12-26T07:09:02.294Z,28.02
2023-12-26T07:10:02.204Z,28.01
2023-12-26T07:11:02.181Z,28.06
2023-12-26T07:12:02.241Z,28.09
2023-12-26T07:13:02.192Z,28.06
2023-12-26T07:14:02.234Z,28.04
2023-12-26T07:15:02.280Z,28.07
2023-12-26T07:16:02.218Z,28.06
2023-12-26T07:17:02.219Z,28.09
2023-12-26T07:18:02.397Z,28.06
2023-12-26T07:19:02.353Z,28.03
2023-12-26T07:20:02.219Z,28.07
2023-12-26T07:21:02.294Z,28.02
2023-12-26T07:22:02.348Z,28.03
2023-12-26T07:23:02.377Z,28.04
2023-12-26T07:24:02.483Z,28.12
2023-12-26T07:25:02.480Z,28.04
2023-12-26T07:26:02.574Z,28.09
2023-12-26T07:27:02.738Z,28.04
2023-12-26T07:28:02.634Z,28.06
2023-12-26T07:29:02.698Z,28.06
2023-12-26T07:30:02.769Z,28.06
2023-12-26T07:31:02.875Z,28.09
2023-12-26T07:32:02.885Z,28.06
2023-12-26T07:33:03.104Z,28.01
2023-12-26T07:34:03.080Z,28.06
2023-12-26T07:35:03.041Z,28.01
2023-12-26T07:36:03.241Z,28.06
2023-12-26T07:37:03.078Z,28.05
2023-12-26T07:38:03.096Z,28.05
2023-12-26T07:39:03.155Z,28.03
2023-12-26T07:40:03.174Z,28.09
2023-12-26T07:41:03.275Z,28.02
2023-12-26T07:42:03.367Z,28.03
2023-12-26T07:43:03.317Z,28.03
2023-12-26T07:44:03.361Z,28.05
2023-12-26T07:45:03.391Z,28.02
2023-12-26T07:46:03.369Z,28.03
2023-12-26T07:47:03.344Z,28.02
2023-12-26T07:48:03.500Z,28.04
2023-12-26T07:49:03.504Z,28.02
2023-12-26T07:50:06.703Z,28.06
2023-12-26T07:51:04.419Z,28.02
2023-12-26T07:52:03.384Z,28.04
2023-12-26T07:53:03.382Z,28.07
2023-12-26T07:54:03.414Z,28.07
2023-12-26T07:55:03.430Z,28.04
2023-12-26T07:56:03.582Z,28.09
2023-12-26T07:57:03.457Z,28.06
2023-12-26T07:58:03.395Z,28.05
2023-12-26T07:59:03.401Z,28.04
2023-12-26T08:00:03.553Z,28.07
2023-12-26T08:01:03.463Z,28.12
2023-12-26T08:02:03.411Z,28.05
2023-12-26T08:03:03.505Z,28.03
2023-12-26T08:04:03.439Z,28.06
2023-12-26T08:05:03.477Z,28.07
2023-12-26T08:06:03.760Z,28.02
2023-12-26T08:07:03.584Z,28.06
2023-12-26T08:08:03.623Z,28.03
2023-12-26T08:09:03.727Z,28.14
2023-12-26T08:10:03.722Z,28.06
2023-12-26T08:11:03.838Z,28.07
2023-12-26T08:12:03.864Z,28.06
2023-12-26T08:13:03.910Z,28.07
2023-12-26T08:14:03.964Z,28.09
2023-12-26T08:15:04.044Z,28.05
2023-12-26T08:16:04.072Z,28.09
2023-12-26T08:17:04.108Z,28.07
2023-12-26T08:18:04.285Z,28.06
2023-12-26T08:19:04.417Z,28.07
2023-12-26T08:20:04.252Z,28.05
2023-12-26T08:21:04.374Z,28.06
2023-12-26T08:22:04.369Z,28.06
2023-12-26T08:23:04.402Z,28.12
2023-12-26T08:24:04.516Z,28.09
2023-12-26T08:25:04.456Z,28.03
2023-12-26T08:26:04.465Z,28.07
2023-12-26T08:27:04.537Z,28.02
2023-12-26T08:28:04.438Z,28.06
2023-12-26T08:29:04.450Z,28.10
2023-12-26T08:30:04.504Z,28.07
2023-12-26T08:31:04.507Z,28.07
2023-12-26T08:32:04.484Z,28.07
2023-12-26T08:33:04.612Z,28.09
2023-12-26T08:34:04.589Z,28.12
2023-12-26T08:35:04.571Z,28.06
2023-12-26T08:36:04.576Z,28.12
2023-12-26T08:37:04.538Z,28.09
2023-12-26T08:38:04.553Z,28.06
2023-12-26T08:39:04.568Z,28.09
2023-12-26T08:40:04.583Z,28.07
2023-12-26T08:41:04.578Z,28.07
2023-12-26T08:42:04.598Z,28.08
2023-12-26T08:43:04.582Z,28.08
2023-12-26T08:44:04.545Z,28.13
2023-12-26T08:45:04.594Z,28.10
2023-12-26T08:46:04.598Z,28.09
2023-12-26T08:47:04.666Z,28.14
2023-12-26T08:48:04.733Z,28.12
2023-12-26T08:49:04.869Z,28.12
2023-12-26T08:50:04.732Z,28.13
2023-12-26T08:51:04.762Z,28.16
2023-12-26T08:52:04.781Z,28.14
2023-12-26T08:53:04.854Z,28.13
2023-12-26T08:54:04.907Z,28.10
2023-12-26T08:55:04.970Z,28.13
2023-12-26T08:56:04.968Z,28.12
2023-12-26T08:57:05.072Z,28.18
2023-12-26T08:58:05.094Z,28.15
2023-12-26T08:59:05.133Z,28.13
2023-12-26T09:00:05.245Z,28.19
2023-12-26T09:01:05.387Z,28.13
2023-12-26T09:02:05.261Z,28.16
2023-12-26T09:03:07.480Z,28.14
2023-12-26T09:04:05.478Z,28.15
2023-12-26T09:05:05.344Z,28.14
2023-12-26T09:06:05.464Z,28.16
2023-12-26T09:07:05.365Z,28.16
2023-12-26T09:08:05.348Z,28.19
2023-12-26T09:09:05.373Z,28.18
2023-12-26T09:10:05.382Z,28.19
2023-12-26T09:11:05.674Z,28.19
2023-12-26T09:12:05.340Z,28.18
2023-12-26T09:13:05.341Z,28.15
2023-12-26T09:14:05.361Z,28.20
2023-12-26T09:15:05.376Z,28.18
2023-12-26T09:16:05.348Z,28.19
2023-12-26T09:17:05.335Z,28.18
2023-12-26T09:18:05.420Z,28.16
2023-12-26T09:19:05.439Z,28.19
2023-12-26T09:20:05.347Z,28.18
2023-12-26T09:21:05.378Z,28.19
2023-12-26T09:22:05.320Z,28.23
2023-12-26T09:23:05.361Z,28.25
2023-12-26T09:24:05.400Z,28.28
2023-12-26T09:25:05.342Z,28.16
2023-12-26T09:26:05.590Z,28.26
2023-12-26T09:27:06.222Z,28.28
2023-12-26T09:28:05.392Z,28.25
2023-12-26T09:29:05.332Z,28.31
2023-12-26T09:30:05.442Z,28.29
2023-12-26T09:31:05.419Z,28.28
2023-12-26T09:32:05.369Z,28.28
2023-12-26T09:33:05.455Z,28.25
2023-12-26T09:34:05.496Z,28.23
2023-12-26T09:35:05.391Z,28.19
2023-12-26T09:36:05.435Z,28.24
2023-12-26T09:37:05.351Z,28.23
2023-12-26T09:38:05.373Z,28.22
2023-12-26T09:39:05.477Z,28.30
2023-12-26T09:40:05.370Z,28.25
2023-12-26T09:41:05.391Z,28.25
2023-12-26T09:42:07.704Z,28.22
2023-12-26T09:43:05.412Z,28.20
2023-12-26T09:44:05.405Z,28.21
2023-12-26T09:45:05.450Z,28.19
2023-12-26T09:46:05.385Z,28.22
2023-12-26T09:47:05.354Z,28.22
2023-12-26T09:48:05.468Z,28.20
2023-12-26T09:49:15.427Z,28.20
2023-12-26T09:50:06.487Z,28.19
2023-12-26T09:51:05.507Z,28.20
2023-12-26T09:52:05.410Z,28.11
2023-12-26T09:53:05.389Z,28.20
2023-12-26T09:54:05.455Z,28.18
2023-12-26T09:55:05.412Z,28.17
2023-12-26T09:56:05.412Z,28.13
2023-12-26T09:57:05.426Z,28.17
2023-12-26T09:58:05.430Z,28.18
2023-12-26T09:59:05.506Z,28.13
2023-12-26T10:00:05.578Z,28.14
2023-12-26T10:01:05.704Z,28.19
2023-12-26T10:02:05.646Z,28.18
2023-12-26T10:03:05.851Z,28.19
2023-12-26T10:04:05.836Z,28.23
2023-12-26T10:05:05.883Z,28.23
2023-12-26T10:06:05.916Z,28.19
2023-12-26T10:07:05.894Z,28.19
2023-12-26T10:08:06.043Z,28.16
2023-12-26T10:09:06.075Z,28.20
2023-12-26T10:10:06.143Z,28.20
2023-12-26T10:11:06.220Z,28.19
2023-12-26T10:12:09.431Z,28.14
2023-12-26T10:13:06.250Z,28.18
2023-12-26T10:14:06.272Z,28.16
2023-12-26T10:15:06.378Z,28.19
2023-12-26T10:16:06.240Z,28.25
2023-12-26T10:17:06.252Z,28.19
2023-12-26T10:18:06.438Z,28.22
2023-12-26T10:19:06.293Z,28.19
2023-12-26T10:20:06.386Z,28.22
2023-12-26T10:21:06.378Z,28.20
2023-12-26T10:22:06.275Z,28.23
2023-12-26T10:23:06.285Z,28.19
2023-12-26T10:24:06.268Z,28.23
2023-12-26T10:25:06.240Z,28.21
2023-12-26T10:26:06.312Z,28.24
2023-12-26T10:27:06.279Z,28.21
2023-12-26T10:28:06.265Z,28.31
2023-12-26T10:29:06.277Z,28.27
2023-12-26T10:30:06.347Z,28.24
2023-12-26T10:31:06.319Z,28.30
2023-12-26T10:32:06.294Z,28.26
2023-12-26T10:33:06.375Z,28.24
2023-12-26T10:34:06.422Z,28.26
2023-12-26T10:35:06.271Z,28.26
2023-12-26T10:36:06.508Z,28.29
2023-12-26T10:37:06.280Z,28.30
2023-12-26T10:38:06.287Z,28.27
2023-12-26T10:39:06.331Z,28.33
2023-12-26T10:40:06.299Z,28.33
2023-12-26T10:41:06.317Z,28.30
2023-12-26T10:42:06.341Z,28.34
2023-12-26T10:43:06.342Z,28.26
2023-12-26T10:44:06.276Z,28.26
2023-12-26T10:45:06.399Z,28.33
2023-12-26T10:46:06.329Z,28.30
2023-12-26T10:47:06.350Z,28.32
2023-12-26T10:48:06.370Z,28.30
2023-12-26T10:49:06.598Z,28.33
2023-12-26T10:50:06.309Z,28.29
2023-12-26T10:51:06.379Z,28.36
2023-12-26T10:52:06.334Z,28.36
2023-12-26T10:53:06.364Z,28.32
2023-12-26T10:54:06.366Z,28.33
2023-12-26T10:55:07.935Z,28.39
2023-12-26T10:56:06.314Z,28.33
2023-12-26T10:57:06.328Z,28.33
2023-12-26T10:58:06.330Z,28.33
2023-12-26T10:59:06.337Z,28.34
2023-12-26T11:00:06.377Z,28.35
2023-12-26T11:01:06.391Z,28.36
2023-12-26T11:02:14.311Z,28.38
2023-12-26T11:03:07.416Z,28.42
2023-12-26T11:04:06.473Z,28.42
2023-12-26T11:05:06.393Z,28.38
2023-12-26T11:06:06.452Z,28.47
2023-12-26T11:07:06.326Z,28.50
2023-12-26T11:08:06.407Z,28.48
2023-12-26T11:09:06.359Z,28.40
2023-12-26T11:10:06.348Z,28.45
2023-12-26T11:11:06.380Z,28.45
2023-12-26T11:12:06.418Z,28.49
2023-12-26T11:13:06.323Z,28.37
2023-12-26T11:14:06.347Z,28.41
2023-12-26T11:15:06.390Z,28.41
2023-12-26T11:16:06.452Z,28.40
2023-12-26T11:17:06.366Z,28.42
2023-12-26T11:18:09.094Z,28.40
2023-12-26T11:19:06.504Z,28.38
2023-12-26T11:20:06.405Z,28.38
2023-12-26T11:21:06.481Z,28.37
2023-12-26T11:22:06.465Z,28.34
2023-12-26T11:23:06.441Z,28.37
2023-12-26T11:24:06.464Z,28.37
2023-12-26T11:25:06.453Z,28.33
2023-12-26T11:26:06.465Z,28.34
2023-12-26T11:27:06.474Z,28.37
2023-12-26T11:28:06.471Z,28.36
2023-12-26T11:29:06.443Z,28.37
2023-12-26T11:30:06.492Z,28.34
2023-12-26T11:31:06.462Z,28.39
2023-12-26T11:32:06.448Z,28.36
2023-12-26T11:33:06.608Z,28.37
2023-12-26T11:34:06.503Z,28.37
2023-12-26T11:35:06.474Z,28.41
2023-12-26T11:36:06.572Z,28.41
2023-12-26T11:37:06.488Z,28.40
2023-12-26T11:38:06.439Z,28.42
2023-12-26T11:39:06.445Z,28.41
2023-12-26T11:40:06.450Z,28.38
2023-12-26T11:41:06.455Z,28.44
2023-12-26T11:42:06.514Z,28.40
2023-12-26T11:43:06.462Z,28.42
2023-12-26T11:44:06.502Z,28.43
2023-12-26T11:45:06.533Z,28.42
2023-12-26T11:46:06.454Z,28.44
2023-12-26T11:47:06.460Z,28.41
2023-12-26T11:48:06.593Z,28.44
2023-12-26T11:49:06.677Z,28.45
2023-12-26T11:50:06.576Z,28.47
2023-12-26T11:51:06.540Z,28.47
2023-12-26T11:52:06.714Z,28.44
2023-12-26T11:53:06.498Z,28.44
2023-12-26T11:54:06.463Z,28.49
2023-12-26T11:55:06.467Z,28.42
2023-12-26T11:56:06.461Z,28.49
2023-12-26T11:57:06.560Z,28.44
2023-12-26T11:58:06.467Z,28.46
2023-12-26T11:59:06.489Z,28.50
2023-12-26T12:00:06.533Z,28.45
2023-12-26T12:01:06.529Z,28.48
2023-12-26T12:02:06.571Z,28.47
2023-12-26T12:03:06.603Z,28.52
2023-12-26T12:04:06.698Z,28.49
2023-12-26T12:05:06.575Z,28.56
2023-12-26T12:06:06.705Z,28.54
2023-12-26T12:07:06.654Z,28.51
2023-12-26T12:08:06.711Z,28.52
2023-12-26T12:09:06.866Z,28.52
2023-12-26T12:10:06.759Z,28.50
2023-12-26T12:11:06.824Z,28.54
2023-12-26T12:12:06.890Z,28.48
2023-12-26T12:13:06.870Z,28.51
2023-12-26T12:14:07.687Z,28.51
2023-12-26T12:15:07.038Z,28.51
2023-12-26T12:16:06.969Z,28.52
2023-12-26T12:17:07.029Z,28.50
2023-12-26T12:18:07.230Z,28.55
2023-12-26T12:19:09.510Z,28.50
2023-12-26T12:20:07.103Z,28.57
2023-12-26T12:21:07.162Z,28.48
2023-12-26T12:22:07.154Z,28.55
2023-12-26T12:23:07.119Z,28.54
2023-12-26T12:24:07.289Z,28.57
2023-12-26T12:25:07.062Z,28.48
2023-12-26T12:26:07.082Z,28.51
2023-12-26T12:27:07.166Z,28.54
2023-12-26T12:28:07.099Z,28.51
2023-12-26T12:29:07.101Z,28.55
2023-12-26T12:30:07.166Z,28.55
2023-12-26T12:31:09.259Z,28.54
2023-12-26T12:32:07.158Z,28.51
2023-12-26T12:33:07.204Z,28.57
2023-12-26T12:34:07.208Z,28.55
2023-12-26T12:35:07.119Z,28.56
2023-12-26T12:36:07.150Z,28.51
2023-12-26T12:37:07.127Z,28.55
2023-12-26T12:38:07.126Z,28.49
2023-12-26T12:39:07.158Z,28.56
2023-12-26T12:40:07.142Z,28.54
2023-12-26T12:41:07.095Z,28.56
2023-12-26T12:42:07.167Z,28.56
2023-12-26T12:43:07.153Z,28.56
2023-12-26T12:44:15.075Z,28.52
2023-12-26T12:45:08.223Z,28.51
2023-12-26T12:46:07.164Z,28.54
2023-12-26T12:47:07.194Z,28.55
2023-12-26T12:48:07.327Z,28.52
2023-12-26T12:49:07.283Z,28.55
2023-12-26T12:50:07.240Z,28.57
2023-12-26T12:51:07.225Z,28.55
2023-12-26T12:52:07.207Z,28.57
2023-12-26T12:53:07.192Z,28.51
2023-12-26T12:54:07.212Z,28.53